createdAt,value
2017-09-09T00:02:10.243Z,33.80
2017-09-09T00:04:39.058Z,33.80
2017-09-09T00:07:08.102Z,33.80
2017-09-09T00:09:36.995Z,33.80
2017-09-09T00:12:05.825Z,33.80
2017-09-09T00:14:34.574Z,33.80
2017-09-09T00:17:03.170Z,33.80
2017-09-09T00:19:31.999Z,33.70
2017-09-09T00:22:01.099Z,33.70
2017-09-09T00:24:29.872Z,33.70
2017-09-09T00:26:58.770Z,33.70
2017-09-09T00:29:27.672Z,33.60
2017-09-09T00:31:55.933Z,33.70
2017-09-09T00:34:24.743Z,33.60
2017-09-09T00:36:53.722Z,33.60
2017-09-09T00:39:22.614Z,33.60
2017-09-09T00:41:51.507Z,33.60
2017-09-09T00:44:19.946Z,33.60
2017-09-09T00:46:48.686Z,33.50
2017-09-09T00:49:17.019Z,33.50
2017-09-09T00:51:45.923Z,33.40
2017-09-09T00:54:14.631Z,33.40
2017-09-09T00:56:43.286Z,33.30
2017-09-09T00:59:11.691Z,33.30
2017-09-09T01:01:40.422Z,33.30
2017-09-09T01:04:08.983Z,33.20
2017-09-09T01:06:37.979Z,33.20
2017-09-09T01:09:06.818Z,33.00
2017-09-09T01:11:35.647Z,33.10
2017-09-09T01:14:04.645Z,33.10
2017-09-09T01:16:33.436Z,33.00
2017-09-09T01:19:02.155Z,33.10
2017-09-09T01:21:31.790Z,33.10
2017-09-09T01:24:00.727Z,33.10
2017-09-09T01:26:29.721Z,33.00
2017-09-09T01:28:58.524Z,32.90
2017-09-09T01:31:27.258Z,33.00
2017-09-09T01:33:55.895Z,32.90
2017-09-09T01:36:24.791Z,33.00
2017-09-09T01:38:53.778Z,33.00
2017-09-09T01:41:22.662Z,33.00
2017-09-09T01:43:51.671Z,32.90
2017-09-09T01:46:19.947Z,32.80
2017-09-09T01:48:48.216Z,32.80
2017-09-09T01:51:16.919Z,32.80
2017-09-09T01:53:46.406Z,32.90
2017-09-09T01:56:15.564Z,32.90
2017-09-09T01:58:44.558Z,32.90
2017-09-09T02:01:13.390Z,32.80
2017-09-09T02:03:42.076Z,32.90
2017-09-09T02:06:10.987Z,32.90
2017-09-09T02:08:39.770Z,32.90
2017-09-09T02:11:08.663Z,32.80
2017-09-09T02:13:37.603Z,32.80
2017-09-09T02:16:06.431Z,32.80
2017-09-09T02:18:35.054Z,32.90
2017-09-09T02:21:04.587Z,32.90
2017-09-09T02:23:33.208Z,32.90
2017-09-09T02:26:01.968Z,32.90
2017-09-09T02:28:30.806Z,32.90
2017-09-09T02:30:59.600Z,32.90
2017-09-09T02:33:28.373Z,33.00
2017-09-09T02:35:57.472Z,32.80
2017-09-09T02:38:26.460Z,32.90
2017-09-09T02:40:54.719Z,32.80
2017-09-09T02:43:23.643Z,32.90
2017-09-09T02:45:52.540Z,33.00
2017-09-09T02:48:21.376Z,33.00
2017-09-09T02:50:49.737Z,33.00
2017-09-09T02:53:19.219Z,33.10
2017-09-09T02:55:47.927Z,33.00
2017-09-09T02:58:17.920Z,33.30
2017-09-09T03:00:46.707Z,33.20
2017-09-09T03:03:15.486Z,33.30
2017-09-09T03:05:44.481Z,33.40
2017-09-09T03:08:13.378Z,33.60
2017-09-09T03:10:41.986Z,33.60
2017-09-09T03:13:11.782Z,33.70
2017-09-09T03:15:40.620Z,33.80
2017-09-09T03:18:09.453Z,33.90
2017-09-09T03:20:38.086Z,34.00
2017-09-09T03:23:07.710Z,34.00
2017-09-09T03:25:36.339Z,34.10
2017-09-09T03:28:05.153Z,34.20
2017-09-09T03:30:34.748Z,34.40
2017-09-09T03:33:03.627Z,34.40
2017-09-09T03:35:32.439Z,34.50
2017-09-09T03:38:00.707Z,34.60
2017-09-09T03:40:29.479Z,34.70
2017-09-09T03:42:58.199Z,34.80
2017-09-09T03:45:27.793Z,34.90
2017-09-09T03:47:56.627Z,35.00
2017-09-09T03:50:25.731Z,35.10
2017-09-09T03:52:54.451Z,35.30
2017-09-09T03:55:23.071Z,35.40
2017-09-09T03:57:53.627Z,35.60
2017-09-09T04:00:22.207Z,35.60
2017-09-09T04:02:50.503Z,35.80
2017-09-09T04:05:19.238Z,36.00
2017-09-09T04:07:47.927Z,36.20
2017-09-09T04:10:16.713Z,36.50
2017-09-09T04:12:45.604Z,36.60
2017-09-09T04:15:14.443Z,36.70
2017-09-09T04:17:43.371Z,36.80
2017-09-09T04:20:12.431Z,37.00
2017-09-09T04:22:41.262Z,37.00
2017-09-09T04:25:09.991Z,37.00
2017-09-09T04:27:39.087Z,37.50
2017-09-09T04:30:08.088Z,38.20
2017-09-09T04:32:37.099Z,39.30
2017-09-09T04:35:05.448Z,39.30
2017-09-09T04:37:34.475Z,40.80
2017-09-09T04:40:03.421Z,40.70
2017-09-09T04:42:32.119Z,41.10
2017-09-09T04:45:01.767Z,41.00
2017-09-09T04:47:30.655Z,41.00
2017-09-09T04:49:58.999Z,40.80
2017-09-09T04:52:27.252Z,40.50
2017-09-09T04:54:56.142Z,40.50
2017-09-09T04:57:25.207Z,41.30
2017-09-09T04:59:53.896Z,41.90
2017-09-09T05:02:22.959Z,43.00
2017-09-09T05:04:52.747Z,43.70
2017-09-09T05:07:22.251Z,43.60
2017-09-09T05:09:50.551Z,43.50
2017-09-09T05:12:20.243Z,43.20
2017-09-09T05:14:49.016Z,43.20
2017-09-09T05:17:17.703Z,43.10
2017-09-09T05:19:46.215Z,42.90
2017-09-09T05:22:14.995Z,42.20
2017-09-09T05:24:43.263Z,42.30
2017-09-09T05:27:12.270Z,42.30
2017-09-09T05:29:40.999Z,42.50
2017-09-09T05:32:09.739Z,43.10
2017-09-09T05:34:38.853Z,44.10
2017-09-09T05:37:08.379Z,45.50
2017-09-09T05:39:38.833Z,46.10
2017-09-09T05:42:07.771Z,46.00
2017-09-09T05:44:36.458Z,46.80
2017-09-09T05:47:04.751Z,46.50
2017-09-09T05:49:33.287Z,46.10
2017-09-09T05:52:01.559Z,45.50
2017-09-09T05:54:29.832Z,44.70
2017-09-09T05:56:58.211Z,44.50
2017-09-09T05:59:26.483Z,44.60
2017-09-09T06:01:54.762Z,44.60
2017-09-09T06:04:23.522Z,44.00
2017-09-09T06:06:52.067Z,44.00
2017-09-09T06:09:20.327Z,43.70
2017-09-09T06:11:48.691Z,43.50
2017-09-09T06:14:16.946Z,43.50
2017-09-09T06:16:45.215Z,43.60
2017-09-09T06:19:14.339Z,43.40
2017-09-09T06:21:42.687Z,43.30
2017-09-09T06:24:11.711Z,44.40
2017-09-09T06:26:40.051Z,44.40
2017-09-09T06:29:08.303Z,45.60
2017-09-09T06:31:36.567Z,46.20
2017-09-09T06:34:05.211Z,47.10
2017-09-09T06:36:33.475Z,47.30
2017-09-09T06:39:03.029Z,47.00
2017-09-09T06:41:31.915Z,47.00
2017-09-09T06:44:00.759Z,46.80
2017-09-09T06:46:29.031Z,45.80
2017-09-09T06:48:57.379Z,45.60
2017-09-09T06:51:25.674Z,45.30
2017-09-09T06:53:53.927Z,45.00
2017-09-09T06:56:22.360Z,44.80
2017-09-09T06:58:50.630Z,44.30
2017-09-09T07:01:18.951Z,44.20
2017-09-09T07:03:47.347Z,44.30
2017-09-09T07:06:15.668Z,44.30
2017-09-09T07:08:44.543Z,44.10
2017-09-09T07:11:12.898Z,43.90
2017-09-09T07:13:41.158Z,43.80
2017-09-09T07:16:11.593Z,43.90
2017-09-09T07:18:40.236Z,43.80
2017-09-09T07:21:09.937Z,43.90
2017-09-09T07:23:38.771Z,43.90
2017-09-09T07:26:07.615Z,43.70
2017-09-09T07:28:36.330Z,43.40
2017-09-09T07:31:05.797Z,43.60
2017-09-09T07:33:34.508Z,43.60
2017-09-09T07:36:05.539Z,43.60
2017-09-09T07:38:34.418Z,43.60
2017-09-09T07:41:03.231Z,43.60
2017-09-09T07:43:31.907Z,43.80
2017-09-09T07:46:00.595Z,43.60
2017-09-09T07:48:29.595Z,43.70
2017-09-09T07:50:58.427Z,43.60
2017-09-09T07:53:27.360Z,43.70
2017-09-09T07:55:56.183Z,43.90
2017-09-09T07:58:25.771Z,43.80
2017-09-09T08:00:54.651Z,43.80
2017-09-09T08:03:23.456Z,43.90
2017-09-09T08:05:52.163Z,43.80
2017-09-09T08:08:21.800Z,43.80
2017-09-09T08:10:51.104Z,43.80
2017-09-09T08:13:20.034Z,43.90
2017-09-09T08:15:48.924Z,44.50
2017-09-09T08:18:17.418Z,45.10
2017-09-09T08:20:46.160Z,45.90
2017-09-09T08:23:14.421Z,46.20
2017-09-09T08:25:42.771Z,45.60
2017-09-09T08:28:11.030Z,44.30
2017-09-09T08:30:46.465Z,44.00
2017-09-09T08:33:15.426Z,43.60
2017-09-09T08:35:44.288Z,43.40
2017-09-09T08:38:13.883Z,43.20
2017-09-09T08:40:42.566Z,43.10
2017-09-09T08:43:11.351Z,43.20
2017-09-09T08:45:40.259Z,43.20
2017-09-09T08:48:08.943Z,43.10
2017-09-09T08:50:37.626Z,43.20
2017-09-09T08:53:06.007Z,43.20
2017-09-09T08:55:34.650Z,43.20
2017-09-09T08:58:03.379Z,43.20
2017-09-09T09:00:31.714Z,43.10
2017-09-09T09:03:00.295Z,43.20
2017-09-09T09:05:28.926Z,43.10
2017-09-09T09:07:57.819Z,43.00
2017-09-09T09:10:26.463Z,42.90
2017-09-09T09:12:55.654Z,42.90
2017-09-09T09:15:24.146Z,43.10
2017-09-09T09:17:52.406Z,43.00
2017-09-09T09:20:20.670Z,43.00
2017-09-09T09:22:49.071Z,43.00
2017-09-09T09:25:17.514Z,42.90
2017-09-09T09:27:45.802Z,42.90
2017-09-09T09:30:14.203Z,42.90
2017-09-09T09:32:43.618Z,42.80
2017-09-09T09:35:12.270Z,42.70
2017-09-09T09:37:41.947Z,42.90
2017-09-09T09:40:10.863Z,42.90
2017-09-09T09:42:39.555Z,43.00
2017-09-09T09:45:08.562Z,42.90
2017-09-09T09:47:37.928Z,43.00
2017-09-09T09:50:06.731Z,43.00
2017-09-09T09:52:35.843Z,42.90
2017-09-09T09:55:04.619Z,42.60
2017-09-09T09:57:33.500Z,42.60
2017-09-09T10:00:02.497Z,42.70
2017-09-09T10:02:31.219Z,42.60
2017-09-09T10:05:00.808Z,42.50
2017-09-09T10:07:29.786Z,42.40
2017-09-09T10:09:58.485Z,42.50
2017-09-09T10:12:27.180Z,42.30
2017-09-09T10:14:56.587Z,42.20
2017-09-09T10:17:25.466Z,42.20
2017-09-09T10:19:53.724Z,42.10
2017-09-09T10:22:22.639Z,42.20
2017-09-09T10:24:54.975Z,42.10
2017-09-09T10:27:24.111Z,42.20
2017-09-09T10:29:52.889Z,42.00
2017-09-09T10:32:21.544Z,42.00
2017-09-09T10:34:50.434Z,41.70
2017-09-09T10:37:19.167Z,41.60
2017-09-09T10:39:48.089Z,41.70
2017-09-09T10:42:17.727Z,41.30
2017-09-09T10:44:46.356Z,41.30
2017-09-09T10:47:15.101Z,41.30
2017-09-09T10:49:44.464Z,41.20
2017-09-09T10:52:13.847Z,41.10
2017-09-09T10:54:42.535Z,41.10
2017-09-09T10:57:11.432Z,41.00
2017-09-09T10:59:40.267Z,40.80
2017-09-09T11:02:09.103Z,40.80
2017-09-09T11:04:37.992Z,40.80
2017-09-09T11:07:06.733Z,40.60
2017-09-09T11:09:35.383Z,40.50
2017-09-09T11:12:04.931Z,40.40
2017-09-09T11:14:33.632Z,40.40
2017-09-09T11:17:02.899Z,40.40
2017-09-09T11:19:32.470Z,40.10
2017-09-09T11:22:00.744Z,40.00
2017-09-09T11:24:29.447Z,40.10
2017-09-09T11:26:58.551Z,40.10
2017-09-09T11:29:26.870Z,40.10
2017-09-09T11:31:55.567Z,40.10
2017-09-09T11:34:24.499Z,40.00
2017-09-09T11:36:52.755Z,40.00
2017-09-09T11:39:21.459Z,39.90
2017-09-09T11:41:51.183Z,39.60
2017-09-09T11:44:20.060Z,39.50
2017-09-09T11:46:48.683Z,39.60
2017-09-09T11:49:17.098Z,39.60
2017-09-09T11:51:45.387Z,39.50
2017-09-09T11:54:13.672Z,39.70
2017-09-09T11:56:42.063Z,39.60
2017-09-09T11:59:10.955Z,39.60
2017-09-09T12:01:39.539Z,39.40
2017-09-09T12:04:08.550Z,39.20
2017-09-09T12:06:37.337Z,39.20
2017-09-09T12:09:05.687Z,39.00
2017-09-09T12:11:34.135Z,38.90
2017-09-09T12:14:02.386Z,38.90
2017-09-09T12:16:30.663Z,38.80
2017-09-09T12:18:59.543Z,38.80
2017-09-09T12:21:28.435Z,38.90
2017-09-09T12:23:57.217Z,38.90
2017-09-09T12:26:25.579Z,38.80
2017-09-09T12:28:53.846Z,38.80
2017-09-09T12:31:22.131Z,38.70
2017-09-09T12:33:50.478Z,38.60
2017-09-09T12:36:18.730Z,38.70
2017-09-09T12:38:46.990Z,38.70
2017-09-09T12:41:15.363Z,38.70
2017-09-09T12:43:43.655Z,38.60
2017-09-09T12:46:11.934Z,38.40
2017-09-09T12:48:40.923Z,38.30
2017-09-09T12:51:09.815Z,38.20
2017-09-09T12:53:38.790Z,38.20
2017-09-09T12:56:07.148Z,38.20
2017-09-09T12:58:35.723Z,38.10
2017-09-09T13:01:04.563Z,38.10
2017-09-09T13:03:32.989Z,38.10
2017-09-09T13:06:01.695Z,38.00
2017-09-09T13:08:30.419Z,37.90
2017-09-09T13:10:59.319Z,37.80
2017-09-09T13:13:27.991Z,37.80
2017-09-09T13:15:56.667Z,37.80
2017-09-09T13:18:25.588Z,37.90
2017-09-09T13:20:54.870Z,37.90
2017-09-09T13:23:23.619Z,37.90
2017-09-09T13:25:52.559Z,37.90
2017-09-09T13:28:20.835Z,37.90
2017-09-09T13:30:49.447Z,37.80
2017-09-09T13:33:19.022Z,38.10
2017-09-09T13:35:47.675Z,38.10
2017-09-09T13:38:15.935Z,38.20
2017-09-09T13:40:45.050Z,38.10
2017-09-09T13:43:13.935Z,38.00
2017-09-09T13:45:42.871Z,37.80
2017-09-09T13:48:11.219Z,37.70
2017-09-09T13:50:39.951Z,37.80
2017-09-09T13:53:08.636Z,37.70
2017-09-09T13:55:37.631Z,37.60
2017-09-09T13:58:06.612Z,37.50
2017-09-09T14:00:35.192Z,37.20
2017-09-09T14:03:04.003Z,37.00
2017-09-09T14:05:32.687Z,37.00
2017-09-09T14:08:01.459Z,37.00
2017-09-09T14:10:29.803Z,37.00
2017-09-09T14:12:58.059Z,36.90
2017-09-09T14:15:27.743Z,36.90
2017-09-09T14:17:56.631Z,36.80
2017-09-09T14:20:25.631Z,36.80
2017-09-09T14:22:54.210Z,36.70
2017-09-09T14:25:23.015Z,36.70
2017-09-09T14:27:52.815Z,36.60
2017-09-09T14:30:21.655Z,36.60
2017-09-09T14:32:50.044Z,36.50
2017-09-09T14:35:18.831Z,36.50
2017-09-09T14:37:47.083Z,36.50
2017-09-09T14:40:16.255Z,36.40
2017-09-09T14:42:45.095Z,36.30
2017-09-09T14:45:13.579Z,36.30
2017-09-09T14:47:42.423Z,36.30
2017-09-09T14:50:12.639Z,36.20
2017-09-09T14:52:41.415Z,36.20
2017-09-09T14:55:10.190Z,36.10
2017-09-09T14:57:38.858Z,36.00
2017-09-09T15:00:07.495Z,35.90
2017-09-09T15:02:36.431Z,36.00
2017-09-09T15:05:04.695Z,35.90
2017-09-09T15:07:34.419Z,35.80
2017-09-09T15:10:03.775Z,35.80
2017-09-09T15:12:32.675Z,35.80
2017-09-09T15:15:01.663Z,35.70
2017-09-09T15:17:30.441Z,35.70
2017-09-09T15:19:58.704Z,35.70
2017-09-09T15:22:26.959Z,35.70
2017-09-09T15:24:55.592Z,35.60
2017-09-09T15:27:24.279Z,35.60
2017-09-09T15:29:52.660Z,35.60
2017-09-09T15:32:21.163Z,35.50
2017-09-09T15:34:49.430Z,35.50
2017-09-09T15:37:17.943Z,35.50
2017-09-09T15:39:46.291Z,35.40
2017-09-09T15:42:15.335Z,35.30
2017-09-09T15:44:43.660Z,35.40
2017-09-09T15:47:12.767Z,35.30
2017-09-09T15:49:41.497Z,35.30
2017-09-09T15:52:10.187Z,35.30
2017-09-09T15:54:39.212Z,35.40
2017-09-09T15:57:07.915Z,35.30
2017-09-09T15:59:36.860Z,35.30
2017-09-09T16:02:05.960Z,35.30
2017-09-09T16:04:34.945Z,35.20
2017-09-09T16:07:03.783Z,35.20
2017-09-09T16:09:32.595Z,35.30
2017-09-09T16:12:02.239Z,35.20
2017-09-09T16:14:31.068Z,35.20
2017-09-09T16:17:00.019Z,35.20
2017-09-09T16:19:28.683Z,35.20
2017-09-09T16:21:58.320Z,35.10
2017-09-09T16:24:27.363Z,35.10
2017-09-09T16:26:56.468Z,35.10
2017-09-09T16:29:24.724Z,35.10
2017-09-09T16:31:53.579Z,35.10
2017-09-09T16:34:22.323Z,35.10
2017-09-09T16:36:51.055Z,35.00
2017-09-09T16:39:20.047Z,35.00
2017-09-09T16:41:49.042Z,35.00
2017-09-09T16:44:17.315Z,35.10
2017-09-09T16:46:46.163Z,35.10
2017-09-09T16:49:14.855Z,35.10
2017-09-09T16:51:43.691Z,35.00
2017-09-09T16:54:12.944Z,35.10
2017-09-09T16:56:41.786Z,35.00
2017-09-09T16:59:10.072Z,35.00
2017-09-09T17:01:39.116Z,35.00
2017-09-09T17:04:07.903Z,35.00
2017-09-09T17:06:36.587Z,35.00
2017-09-09T17:09:05.683Z,35.00
2017-09-09T17:11:34.562Z,34.90
2017-09-09T17:14:03.455Z,34.90
2017-09-09T17:16:32.901Z,34.90
2017-09-09T17:19:02.279Z,34.80
2017-09-09T17:21:31.013Z,34.80
2017-09-09T17:24:00.011Z,34.80
2017-09-09T17:26:28.895Z,34.80
2017-09-09T17:28:57.847Z,34.80
2017-09-09T17:31:26.650Z,34.80
2017-09-09T17:33:55.501Z,34.70
2017-09-09T17:36:24.111Z,34.70
2017-09-09T17:38:52.972Z,34.70
2017-09-09T17:41:21.831Z,34.70
2017-09-09T17:43:50.888Z,34.70
2017-09-09T17:46:19.252Z,34.70
2017-09-09T17:48:47.915Z,34.70
2017-09-09T17:51:16.643Z,34.60
2017-09-09T17:53:46.271Z,34.70
2017-09-09T17:56:15.915Z,34.60
2017-09-09T17:58:44.846Z,34.60
2017-09-09T18:01:13.557Z,34.50
2017-09-09T18:03:42.227Z,34.60
2017-09-09T18:06:10.487Z,34.60
2017-09-09T18:08:39.240Z,34.60
2017-09-09T18:11:07.947Z,34.60
2017-09-09T18:13:36.671Z,34.60
2017-09-09T18:16:05.175Z,34.60
2017-09-09T18:18:34.659Z,34.50
2017-09-09T18:21:03.541Z,34.50
2017-09-09T18:23:32.255Z,34.40
2017-09-09T18:26:00.931Z,34.40
2017-09-09T18:28:29.620Z,34.40
2017-09-09T18:30:58.376Z,34.40
2017-09-09T18:33:27.183Z,34.40
2017-09-09T18:35:55.803Z,34.40
2017-09-09T18:38:24.675Z,34.40
2017-09-09T18:40:53.362Z,34.40
2017-09-09T18:43:22.095Z,34.40
2017-09-09T18:45:51.086Z,34.30
2017-09-09T18:48:19.915Z,34.30
2017-09-09T18:50:48.812Z,34.30
2017-09-09T18:53:17.706Z,34.30
2017-09-09T18:55:46.399Z,34.30
2017-09-09T18:58:15.091Z,34.30
2017-09-09T19:00:44.187Z,34.30
2017-09-09T19:03:13.027Z,34.20
2017-09-09T19:05:42.647Z,34.30
2017-09-09T19:08:11.583Z,34.30
2017-09-09T19:10:40.371Z,34.30
2017-09-09T19:13:09.107Z,34.10
2017-09-09T19:15:38.359Z,34.10
2017-09-09T19:18:07.138Z,34.10
2017-09-09T19:20:35.759Z,34.20
2017-09-09T19:23:05.551Z,34.10
2017-09-09T19:25:34.391Z,34.20
2017-09-09T19:28:03.112Z,34.10
2017-09-09T19:30:31.824Z,34.10
2017-09-09T19:33:00.588Z,34.10
2017-09-09T19:35:29.291Z,34.10
2017-09-09T19:37:58.287Z,34.00
2017-09-09T19:40:27.123Z,34.00
2017-09-09T19:42:56.015Z,34.00
2017-09-09T19:45:24.803Z,34.00
2017-09-09T19:47:53.065Z,34.00
2017-09-09T19:50:22.387Z,33.80
2017-09-09T19:52:51.226Z,33.80
2017-09-09T19:55:20.018Z,33.80
2017-09-09T19:57:48.275Z,33.80
2017-09-09T20:00:17.199Z,33.80
2017-09-09T20:02:45.931Z,33.80
2017-09-09T20:05:14.768Z,33.90
2017-09-09T20:07:43.668Z,33.80
2017-09-09T20:10:11.939Z,33.80
2017-09-09T20:12:40.724Z,33.80
2017-09-09T20:15:09.818Z,33.80
2017-09-09T20:17:38.663Z,33.80
2017-09-09T20:20:06.943Z,33.80
2017-09-09T20:22:35.839Z,33.80
2017-09-09T20:25:04.831Z,33.80
2017-09-09T20:27:33.467Z,33.80
2017-09-09T20:30:02.459Z,33.70
2017-09-09T20:32:31.241Z,33.70
2017-09-09T20:35:00.505Z,33.70
2017-09-09T20:37:29.494Z,33.70
2017-09-09T20:39:58.221Z,33.70
2017-09-09T20:42:26.484Z,33.60
2017-09-09T20:44:55.407Z,33.60
2017-09-09T20:47:24.196Z,33.60
2017-09-09T20:49:53.030Z,33.60
2017-09-09T20:52:22.127Z,33.60
2017-09-09T20:54:51.118Z,33.60
2017-09-09T20:57:20.172Z,33.50
2017-09-09T20:59:49.215Z,33.50
2017-09-09T21:02:18.103Z,33.50
2017-09-09T21:04:46.611Z,33.50
2017-09-09T21:07:15.447Z,33.50
2017-09-09T21:09:45.028Z,33.50
2017-09-09T21:12:14.019Z,33.50
2017-09-09T21:14:43.075Z,33.50
2017-09-09T21:17:11.908Z,33.50
2017-09-09T21:19:40.631Z,33.50
2017-09-09T21:22:11.087Z,33.30
2017-09-09T21:24:39.822Z,33.30
2017-09-09T21:27:08.619Z,33.30
2017-09-09T21:29:36.999Z,33.40
2017-09-09T21:32:05.687Z,33.40
2017-09-09T21:34:34.527Z,33.30
2017-09-09T21:37:03.675Z,33.30
2017-09-09T21:39:32.547Z,33.30
2017-09-09T21:42:01.446Z,33.30
2017-09-09T21:44:30.150Z,33.20
2017-09-09T21:46:58.986Z,33.20
2017-09-09T21:49:27.927Z,33.20
2017-09-09T21:51:56.724Z,33.20
2017-09-09T21:54:26.127Z,33.10
2017-09-09T21:56:54.810Z,33.00
2017-09-09T21:59:23.764Z,33.10
2017-09-09T22:01:53.112Z,33.00
2017-09-09T22:04:21.943Z,33.00
2017-09-09T22:06:50.691Z,33.00
2017-09-09T22:09:19.484Z,33.00
2017-09-09T22:11:48.211Z,32.90
2017-09-09T22:14:16.848Z,33.00
2017-09-09T22:16:45.792Z,32.90
2017-09-09T22:19:14.520Z,32.70
2017-09-09T22:21:43.213Z,32.80
2017-09-09T22:24:12.024Z,32.80
2017-09-09T22:26:41.604Z,32.80
2017-09-09T22:29:09.864Z,32.70
2017-09-09T22:31:38.783Z,32.70
2017-09-09T22:34:07.683Z,32.70
2017-09-09T22:36:36.574Z,32.80
2017-09-09T22:39:06.075Z,32.80
2017-09-09T22:41:34.770Z,32.80
2017-09-09T22:44:03.543Z,32.70
2017-09-09T22:46:32.537Z,32.70
2017-09-09T22:49:01.159Z,32.70
2017-09-09T22:51:30.729Z,32.70
2017-09-09T22:53:59.943Z,32.60
2017-09-09T22:56:28.779Z,32.60
2017-09-09T22:58:57.607Z,32.60
2017-09-09T23:01:26.605Z,32.60
2017-09-09T23:03:55.398Z,32.60
2017-09-09T23:06:24.047Z,32.50
2017-09-09T23:08:53.038Z,32.50
2017-09-09T23:11:21.779Z,32.40
2017-09-09T23:13:50.091Z,32.30
2017-09-09T23:16:18.484Z,32.30
2017-09-09T23:18:47.179Z,32.30
2017-09-09T23:21:16.011Z,32.30
2017-09-09T23:23:45.115Z,32.30
2017-09-09T23:26:14.004Z,32.30
2017-09-09T23:41:40.743Z,32.70
2017-09-09T23:44:09.617Z,32.50
2017-09-09T23:46:38.511Z,32.40
2017-09-09T23:49:07.221Z,32.30
2017-09-09T23:51:35.799Z,32.10
2017-09-09T23:54:04.583Z,32.10
2017-09-09T23:56:33.579Z,32.10
2017-09-09T23:59:02.351Z,32.10
